sensor_id;sensor_type;location;lat;lon;timestamp;P1;durP1;ratioP1;P2;durP2;ratioP2
44822;SDS011;51097;51.984;5.650;2023-04-03T00:01:06;2.90;;;2.00;;
44822;SDS011;51097;51.984;5.650;2023-04-03T00:03:32;3.58;;;1.88;;
44822;SDS011;51097;51.984;5.650;2023-04-03T00:05:59;3.28;;;2.20;;
44822;SDS011;51097;51.984;5.650;2023-04-03T00:08:25;2.17;;;1.60;;
44822;SDS011;51097;51.984;5.650;2023-04-03T00:10:51;2.85;;;1.98;;
44822;SDS011;51097;51.984;5.650;2023-04-03T00:13:16;6.55;;;2.17;;
44822;SDS011;51097;51.984;5.650;2023-04-03T00:15:42;2.53;;;1.65;;
44822;SDS011;51097;51.984;5.650;2023-04-03T00:18:08;3.03;;;1.95;;
44822;SDS011;51097;51.984;5.650;2023-04-03T00:20:34;4.20;;;1.70;;
44822;SDS011;51097;51.984;5.650;2023-04-03T00:23:00;2.92;;;2.10;;
44822;SDS011;51097;51.984;5.650;2023-04-03T00:25:26;2.20;;;1.77;;
44822;SDS011;51097;51.984;5.650;2023-04-03T00:27:52;2.88;;;1.75;;
44822;SDS011;51097;51.984;5.650;2023-04-03T00:30:20;1.77;;;1.52;;
44822;SDS011;51097;51.984;5.650;2023-04-03T00:32:49;3.15;;;2.05;;
44822;SDS011;51097;51.984;5.650;2023-04-03T00:35:16;5.00;;;1.80;;
44822;SDS011;51097;51.984;5.650;2023-04-03T00:37:43;4.25;;;1.92;;
44822;SDS011;51097;51.984;5.650;2023-04-03T00:40:09;2.50;;;1.38;;
44822;SDS011;51097;51.984;5.650;2023-04-03T00:42:37;3.00;;;2.22;;
44822;SDS011;51097;51.984;5.650;2023-04-03T00:47:28;2.00;;;1.75;;
44822;SDS011;51097;51.984;5.650;2023-04-03T00:49:55;3.17;;;1.92;;
44822;SDS011;51097;51.984;5.650;2023-04-03T00:52:23;2.60;;;1.73;;
44822;SDS011;51097;51.984;5.650;2023-04-03T00:54:54;6.18;;;2.03;;
44822;SDS011;51097;51.984;5.650;2023-04-03T00:57:25;4.95;;;2.03;;
44822;SDS011;51097;51.984;5.650;2023-04-03T00:59:53;2.53;;;1.70;;
44822;SDS011;51097;51.984;5.650;2023-04-03T01:04:47;3.95;;;1.98;;
44822;SDS011;51097;51.984;5.650;2023-04-03T01:09:44;1.70;;;1.23;;
44822;SDS011;51097;51.984;5.650;2023-04-03T01:12:13;6.55;;;2.10;;
44822;SDS011;51097;51.984;5.650;2023-04-03T01:14:48;1.90;;;1.45;;
44822;SDS011;51097;51.984;5.650;2023-04-03T01:19:57;6.07;;;1.90;;
44822;SDS011;51097;51.984;5.650;2023-04-03T01:22:51;4.40;;;2.15;;
44822;SDS011;51097;51.984;5.650;2023-04-03T01:25:31;4.47;;;2.17;;
44822;SDS011;51097;51.984;5.650;2023-04-03T01:27:57;3.17;;;1.98;;
44822;SDS011;51097;51.984;5.650;2023-04-03T01:30:24;3.22;;;2.03;;
44822;SDS011;51097;51.984;5.650;2023-04-03T01:32:54;1.92;;;1.63;;
44822;SDS011;51097;51.984;5.650;2023-04-03T01:35:20;2.67;;;1.55;;
44822;SDS011;51097;51.984;5.650;2023-04-03T01:37:46;2.00;;;1.63;;
44822;SDS011;51097;51.984;5.650;2023-04-03T01:40:11;3.40;;;2.03;;
44822;SDS011;51097;51.984;5.650;2023-04-03T01:42:37;4.45;;;2.00;;
44822;SDS011;51097;51.984;5.650;2023-04-03T01:45:02;2.42;;;1.30;;
44822;SDS011;51097;51.984;5.650;2023-04-03T01:47:28;3.03;;;1.60;;
44822;SDS011;51097;51.984;5.650;2023-04-03T01:49:54;4.30;;;2.00;;
44822;SDS011;51097;51.984;5.650;2023-04-03T01:52:19;2.92;;;1.98;;
44822;SDS011;51097;51.984;5.650;2023-04-03T01:54:45;4.45;;;1.92;;
44822;SDS011;51097;51.984;5.650;2023-04-03T01:57:11;5.15;;;1.95;;
44822;SDS011;51097;51.984;5.650;2023-04-03T01:59:38;3.80;;;1.77;;
44822;SDS011;51097;51.984;5.650;2023-04-03T02:02:04;3.78;;;1.50;;
44822;SDS011;51097;51.984;5.650;2023-04-03T02:04:29;3.08;;;2.67;;
44822;SDS011;51097;51.984;5.650;2023-04-03T02:06:55;5.38;;;2.00;;
44822;SDS011;51097;51.984;5.650;2023-04-03T02:09:20;2.97;;;1.55;;
44822;SDS011;51097;51.984;5.650;2023-04-03T02:11:46;3.30;;;2.13;;
44822;SDS011;51097;51.984;5.650;2023-04-03T02:14:12;3.42;;;2.28;;
44822;SDS011;51097;51.984;5.650;2023-04-03T02:16:37;4.97;;;2.20;;
44822;SDS011;51097;51.984;5.650;2023-04-03T02:19:03;6.55;;;2.13;;
44822;SDS011;51097;51.984;5.650;2023-04-03T02:21:29;2.83;;;1.63;;
44822;SDS011;51097;51.984;5.650;2023-04-03T02:23:54;4.40;;;2.00;;
44822;SDS011;51097;51.984;5.650;2023-04-03T02:26:20;4.15;;;2.17;;
44822;SDS011;51097;51.984;5.650;2023-04-03T02:28:46;3.58;;;1.65;;
44822;SDS011;51097;51.984;5.650;2023-04-03T02:31:11;4.57;;;2.13;;
44822;SDS011;51097;51.984;5.650;2023-04-03T02:33:38;3.58;;;1.90;;
44822;SDS011;51097;51.984;5.650;2023-04-03T02:36:04;5.43;;;2.10;;
44822;SDS011;51097;51.984;5.650;2023-04-03T02:38:31;3.17;;;1.63;;
44822;SDS011;51097;51.984;5.650;2023-04-03T02:41:04;4.18;;;2.15;;
44822;SDS011;51097;51.984;5.650;2023-04-03T02:43:32;2.55;;;1.80;;
44822;SDS011;51097;51.984;5.650;2023-04-03T02:45:58;3.42;;;2.03;;
44822;SDS011;51097;51.984;5.650;2023-04-03T02:48:23;4.20;;;1.83;;
44822;SDS011;51097;51.984;5.650;2023-04-03T02:50:50;3.15;;;1.80;;
44822;SDS011;51097;51.984;5.650;2023-04-03T02:53:16;7.82;;;2.08;;
44822;SDS011;51097;51.984;5.650;2023-04-03T02:55:41;5.25;;;2.30;;
44822;SDS011;51097;51.984;5.650;2023-04-03T02:58:07;3.47;;;1.75;;
44822;SDS011;51097;51.984;5.650;2023-04-03T03:00:33;6.13;;;2.15;;
44822;SDS011;51097;51.984;5.650;2023-04-03T03:02:58;4.03;;;2.30;;
44822;SDS011;51097;51.984;5.650;2023-04-03T03:05:24;3.03;;;1.67;;
44822;SDS011;51097;51.984;5.650;2023-04-03T03:07:51;2.92;;;2.20;;
44822;SDS011;51097;51.984;5.650;2023-04-03T03:10:17;3.10;;;2.15;;
44822;SDS011;51097;51.984;5.650;2023-04-03T03:12:42;4.65;;;1.88;;
44822;SDS011;51097;51.984;5.650;2023-04-03T03:15:08;5.68;;;2.13;;
44822;SDS011;51097;51.984;5.650;2023-04-03T03:17:34;4.10;;;2.20;;
44822;SDS011;51097;51.984;5.650;2023-04-03T03:20:01;8.23;;;2.35;;
44822;SDS011;51097;51.984;5.650;2023-04-03T03:22:27;6.53;;;2.17;;
44822;SDS011;51097;51.984;5.650;2023-04-03T03:24:53;4.13;;;1.75;;
44822;SDS011;51097;51.984;5.650;2023-04-03T03:27:18;3.25;;;2.13;;
44822;SDS011;51097;51.984;5.650;2023-04-03T03:29:44;5.40;;;2.13;;
44822;SDS011;51097;51.984;5.650;2023-04-03T03:32:10;5.50;;;2.50;;
44822;SDS011;51097;51.984;5.650;2023-04-03T03:34:35;2.30;;;1.98;;
44822;SDS011;51097;51.984;5.650;2023-04-03T03:37:01;4.78;;;2.10;;
44822;SDS011;51097;51.984;5.650;2023-04-03T03:39:27;4.22;;;2.15;;
44822;SDS011;51097;51.984;5.650;2023-04-03T03:41:52;2.85;;;2.00;;
44822;SDS011;51097;51.984;5.650;2023-04-03T03:44:18;6.05;;;2.10;;
44822;SDS011;51097;51.984;5.650;2023-04-03T03:46:44;3.03;;;1.50;;
44822;SDS011;51097;51.984;5.650;2023-04-03T03:49:10;5.25;;;2.55;;
44822;SDS011;51097;51.984;5.650;2023-04-03T03:51:36;6.05;;;2.45;;
44822;SDS011;51097;51.984;5.650;2023-04-03T03:54:02;8.43;;;2.90;;
44822;SDS011;51097;51.984;5.650;2023-04-03T03:56:28;2.85;;;2.08;;
44822;SDS011;51097;51.984;5.650;2023-04-03T03:58:54;5.07;;;2.50;;
44822;SDS011;51097;51.984;5.650;2023-04-03T04:01:21;9.80;;;3.58;;
44822;SDS011;51097;51.984;5.650;2023-04-03T04:03:48;1.98;;;1.73;;
44822;SDS011;51097;51.984;5.650;2023-04-03T04:06:14;5.60;;;2.50;;
44822;SDS011;51097;51.984;5.650;2023-04-03T04:08:39;2.85;;;2.10;;
44822;SDS011;51097;51.984;5.650;2023-04-03T04:11:05;3.55;;;2.38;;
44822;SDS011;51097;51.984;5.650;2023-04-03T04:13:31;6.47;;;2.75;;
44822;SDS011;51097;51.984;5.650;2023-04-03T04:15:56;5.32;;;3.00;;
44822;SDS011;51097;51.984;5.650;2023-04-03T04:18:22;8.15;;;2.78;;
44822;SDS011;51097;51.984;5.650;2023-04-03T04:20:48;7.38;;;2.67;;
44822;SDS011;51097;51.984;5.650;2023-04-03T04:23:14;3.35;;;2.33;;
44822;SDS011;51097;51.984;5.650;2023-04-03T04:25:41;5.50;;;2.55;;
44822;SDS011;51097;51.984;5.650;2023-04-03T04:28:08;3.83;;;2.80;;
44822;SDS011;51097;51.984;5.650;2023-04-03T04:30:34;5.00;;;2.60;;
44822;SDS011;51097;51.984;5.650;2023-04-03T04:33:00;6.47;;;2.70;;
44822;SDS011;51097;51.984;5.650;2023-04-03T04:35:26;3.28;;;2.60;;
44822;SDS011;51097;51.984;5.650;2023-04-03T04:37:51;4.32;;;2.67;;
44822;SDS011;51097;51.984;5.650;2023-04-03T04:40:17;5.40;;;2.60;;
44822;SDS011;51097;51.984;5.650;2023-04-03T04:42:43;6.55;;;2.83;;
44822;SDS011;51097;51.984;5.650;2023-04-03T04:45:08;6.30;;;2.50;;
44822;SDS011;51097;51.984;5.650;2023-04-03T04:47:34;4.25;;;2.40;;
44822;SDS011;51097;51.984;5.650;2023-04-03T04:50:00;5.88;;;2.53;;
44822;SDS011;51097;51.984;5.650;2023-04-03T04:52:25;7.10;;;2.88;;
44822;SDS011;51097;51.984;5.650;2023-04-03T04:54:51;5.97;;;2.80;;
44822;SDS011;51097;51.984;5.650;2023-04-03T04:57:17;4.65;;;2.55;;
44822;SDS011;51097;51.984;5.650;2023-04-03T04:59:43;3.42;;;2.47;;
44822;SDS011;51097;51.984;5.650;2023-04-03T05:02:08;6.03;;;3.25;;
44822;SDS011;51097;51.984;5.650;2023-04-03T05:04:34;4.70;;;2.90;;
44822;SDS011;51097;51.984;5.650;2023-04-03T05:06:59;7.18;;;2.97;;
44822;SDS011;51097;51.984;5.650;2023-04-03T05:09:25;4.60;;;2.67;;
44822;SDS011;51097;51.984;5.650;2023-04-03T05:11:50;10.55;;;3.10;;
44822;SDS011;51097;51.984;5.650;2023-04-03T05:14:16;11.85;;;3.35;;
44822;SDS011;51097;51.984;5.650;2023-04-03T05:16:42;6.28;;;2.80;;
44822;SDS011;51097;51.984;5.650;2023-04-03T05:19:07;7.72;;;2.92;;
44822;SDS011;51097;51.984;5.650;2023-04-03T05:21:33;5.35;;;3.13;;
44822;SDS011;51097;51.984;5.650;2023-04-03T05:24:00;7.22;;;3.65;;
44822;SDS011;51097;51.984;5.650;2023-04-03T05:26:29;4.70;;;2.60;;
44822;SDS011;51097;51.984;5.650;2023-04-03T05:28:55;5.72;;;2.75;;
44822;SDS011;51097;51.984;5.650;2023-04-03T05:31:21;6.88;;;3.53;;
44822;SDS011;51097;51.984;5.650;2023-04-03T05:33:47;7.22;;;3.33;;
44822;SDS011;51097;51.984;5.650;2023-04-03T05:36:13;4.50;;;3.33;;
44822;SDS011;51097;51.984;5.650;2023-04-03T05:38:39;8.32;;;2.97;;
44822;SDS011;51097;51.984;5.650;2023-04-03T05:41:04;3.78;;;2.33;;
44822;SDS011;51097;51.984;5.650;2023-04-03T05:43:30;4.55;;;2.97;;
44822;SDS011;51097;51.984;5.650;2023-04-03T05:45:56;4.72;;;2.65;;
44822;SDS011;51097;51.984;5.650;2023-04-03T05:48:22;6.13;;;2.58;;
44822;SDS011;51097;51.984;5.650;2023-04-03T05:50:47;7.47;;;3.17;;
44822;SDS011;51097;51.984;5.650;2023-04-03T05:53:15;5.75;;;3.00;;
44822;SDS011;51097;51.984;5.650;2023-04-03T05:55:46;5.18;;;2.97;;
44822;SDS011;51097;51.984;5.650;2023-04-03T05:58:12;6.90;;;2.97;;
44822;SDS011;51097;51.984;5.650;2023-04-03T06:00:38;6.07;;;2.72;;
44822;SDS011;51097;51.984;5.650;2023-04-03T06:03:03;6.68;;;3.42;;
44822;SDS011;51097;51.984;5.650;2023-04-03T06:05:30;4.47;;;3.78;;
44822;SDS011;51097;51.984;5.650;2023-04-03T06:07:55;8.93;;;3.08;;
44822;SDS011;51097;51.984;5.650;2023-04-03T06:10:22;6.55;;;3.00;;
44822;SDS011;51097;51.984;5.650;2023-04-03T06:12:47;7.43;;;3.10;;
44822;SDS011;51097;51.984;5.650;2023-04-03T06:15:13;5.95;;;3.08;;
44822;SDS011;51097;51.984;5.650;2023-04-03T06:17:39;6.00;;;2.85;;
44822;SDS011;51097;51.984;5.650;2023-04-03T06:20:05;4.57;;;3.05;;
44822;SDS011;51097;51.984;5.650;2023-04-03T06:22:31;9.65;;;2.90;;
44822;SDS011;51097;51.984;5.650;2023-04-03T06:24:57;3.55;;;2.30;;
44822;SDS011;51097;51.984;5.650;2023-04-03T06:27:23;6.97;;;2.63;;
44822;SDS011;51097;51.984;5.650;2023-04-03T06:29:48;6.38;;;2.97;;
44822;SDS011;51097;51.984;5.650;2023-04-03T06:32:14;3.72;;;2.72;;
44822;SDS011;51097;51.984;5.650;2023-04-03T06:34:41;5.03;;;2.75;;
44822;SDS011;51097;51.984;5.650;2023-04-03T06:37:10;6.47;;;1.83;;
44822;SDS011;51097;51.984;5.650;2023-04-03T06:39:40;6.80;;;2.50;;
44822;SDS011;51097;51.984;5.650;2023-04-03T06:42:06;2.78;;;1.88;;
44822;SDS011;51097;51.984;5.650;2023-04-03T06:44:32;6.28;;;3.78;;
44822;SDS011;51097;51.984;5.650;2023-04-03T06:46:59;7.38;;;2.63;;
44822;SDS011;51097;51.984;5.650;2023-04-03T06:49:25;6.07;;;2.15;;
44822;SDS011;51097;51.984;5.650;2023-04-03T06:51:51;5.38;;;2.50;;
44822;SDS011;51097;51.984;5.650;2023-04-03T06:54:17;4.13;;;2.13;;
44822;SDS011;51097;51.984;5.650;2023-04-03T06:56:43;9.32;;;2.63;;
44822;SDS011;51097;51.984;5.650;2023-04-03T06:59:09;5.38;;;2.50;;
44822;SDS011;51097;51.984;5.650;2023-04-03T07:01:35;7.18;;;2.40;;
44822;SDS011;51097;51.984;5.650;2023-04-03T07:04:00;8.60;;;2.72;;
44822;SDS011;51097;51.984;5.650;2023-04-03T07:06:26;5.68;;;2.25;;
44822;SDS011;51097;51.984;5.650;2023-04-03T07:08:52;5.38;;;1.80;;
44822;SDS011;51097;51.984;5.650;2023-04-03T07:11:18;6.75;;;2.40;;
44822;SDS011;51097;51.984;5.650;2023-04-03T07:13:43;4.93;;;2.47;;
44822;SDS011;51097;51.984;5.650;2023-04-03T07:16:09;5.22;;;2.67;;
44822;SDS011;51097;51.984;5.650;2023-04-03T07:18:35;6.05;;;1.90;;
44822;SDS011;51097;51.984;5.650;2023-04-03T07:21:01;5.75;;;1.77;;
44822;SDS011;51097;51.984;5.650;2023-04-03T07:23:27;4.72;;;1.92;;
44822;SDS011;51097;51.984;5.650;2023-04-03T07:25:53;5.38;;;2.63;;
44822;SDS011;51097;51.984;5.650;2023-04-03T07:28:19;4.00;;;1.98;;
44822;SDS011;51097;51.984;5.650;2023-04-03T07:30:49;7.97;;;2.38;;
44822;SDS011;51097;51.984;5.650;2023-04-03T07:33:17;6.22;;;1.80;;
44822;SDS011;51097;51.984;5.650;2023-04-03T07:35:44;3.97;;;1.75;;
44822;SDS011;51097;51.984;5.650;2023-04-03T07:38:10;9.10;;;2.80;;
44822;SDS011;51097;51.984;5.650;2023-04-03T07:40:36;4.03;;;1.77;;
44822;SDS011;51097;51.984;5.650;2023-04-03T07:43:02;4.10;;;1.63;;
44822;SDS011;51097;51.984;5.650;2023-04-03T07:45:29;3.75;;;1.70;;
44822;SDS011;51097;51.984;5.650;2023-04-03T07:47:55;2.83;;;2.50;;
44822;SDS011;51097;51.984;5.650;2023-04-03T07:50:20;4.38;;;1.42;;
44822;SDS011;51097;51.984;5.650;2023-04-03T07:52:46;5.97;;;2.03;;
44822;SDS011;51097;51.984;5.650;2023-04-03T07:55:12;2.45;;;1.55;;
44822;SDS011;51097;51.984;5.650;2023-04-03T07:57:38;2.58;;;1.40;;
44822;SDS011;51097;51.984;5.650;2023-04-03T08:00:04;3.55;;;1.70;;
44822;SDS011;51097;51.984;5.650;2023-04-03T08:02:30;5.53;;;1.50;;
44822;SDS011;51097;51.984;5.650;2023-04-03T08:04:57;3.60;;;1.20;;
44822;SDS011;51097;51.984;5.650;2023-04-03T08:07:23;4.43;;;1.38;;
44822;SDS011;51097;51.984;5.650;2023-04-03T08:09:48;5.10;;;1.50;;
44822;SDS011;51097;51.984;5.650;2023-04-03T08:12:14;4.82;;;1.80;;
44822;SDS011;51097;51.984;5.650;2023-04-03T08:14:40;3.50;;;1.30;;
44822;SDS011;51097;51.984;5.650;2023-04-03T08:17:06;6.25;;;1.20;;
44822;SDS011;51097;51.984;5.650;2023-04-03T08:19:34;2.78;;;1.48;;
44822;SDS011;51097;51.984;5.650;2023-04-03T08:22:00;3.85;;;1.65;;
44822;SDS011;51097;51.984;5.650;2023-04-03T08:24:28;3.20;;;1.90;;
44822;SDS011;51097;51.984;5.650;2023-04-03T08:26:54;4.65;;;2.35;;
44822;SDS011;51097;51.984;5.650;2023-04-03T08:29:20;3.03;;;1.00;;
44822;SDS011;51097;51.984;5.650;2023-04-03T08:31:46;2.67;;;1.08;;
44822;SDS011;51097;51.984;5.650;2023-04-03T08:34:12;2.30;;;1.00;;
44822;SDS011;51097;51.984;5.650;2023-04-03T08:36:39;1.95;;;1.33;;
44822;SDS011;51097;51.984;5.650;2023-04-03T08:39:05;1.20;;;0.90;;
44822;SDS011;51097;51.984;5.650;2023-04-03T08:41:41;3.53;;;1.00;;
44822;SDS011;51097;51.984;5.650;2023-04-03T08:49:38;1.35;;;0.60;;
44822;SDS011;51097;51.984;5.650;2023-04-03T08:52:09;1.88;;;0.70;;
44822;SDS011;51097;51.984;5.650;2023-04-03T08:54:41;0.88;;;0.60;;
44822;SDS011;51097;51.984;5.650;2023-04-03T08:57:15;2.30;;;1.00;;
44822;SDS011;51097;51.984;5.650;2023-04-03T08:59:44;1.88;;;0.80;;
44822;SDS011;51097;51.984;5.650;2023-04-03T09:02:16;3.20;;;0.75;;
44822;SDS011;51097;51.984;5.650;2023-04-03T09:05:16;0.98;;;0.60;;
44822;SDS011;51097;51.984;5.650;2023-04-03T09:10:58;2.92;;;0.55;;
44822;SDS011;51097;51.984;5.650;2023-04-03T09:19:17;1.52;;;0.40;;
44822;SDS011;51097;51.984;5.650;2023-04-03T09:21:47;0.43;;;0.40;;
44822;SDS011;51097;51.984;5.650;2023-04-03T09:24:13;1.95;;;0.52;;
44822;SDS011;51097;51.984;5.650;2023-04-03T09:26:42;0.35;;;0.35;;
44822;SDS011;51097;51.984;5.650;2023-04-03T09:29:14;0.60;;;0.60;;
44822;SDS011;51097;51.984;5.650;2023-04-03T09:31:47;1.25;;;0.43;;
44822;SDS011;51097;51.984;5.650;2023-04-03T09:34:25;1.88;;;0.40;;
44822;SDS011;51097;51.984;5.650;2023-04-03T09:36:53;1.40;;;0.40;;
44822;SDS011;51097;51.984;5.650;2023-04-03T09:39:28;0.30;;;0.20;;
44822;SDS011;51097;51.984;5.650;2023-04-03T09:41:55;1.48;;;0.43;;
44822;SDS011;51097;51.984;5.650;2023-04-03T09:44:36;0.40;;;0.40;;
44822;SDS011;51097;51.984;5.650;2023-04-03T09:52:43;0.60;;;0.43;;
44822;SDS011;51097;51.984;5.650;2023-04-03T09:55:20;0.77;;;0.40;;
44822;SDS011;51097;51.984;5.650;2023-04-03T09:57:52;1.88;;;0.55;;
44822;SDS011;51097;51.984;5.650;2023-04-03T10:00:29;0.47;;;0.47;;
44822;SDS011;51097;51.984;5.650;2023-04-03T10:03:00;0.90;;;0.40;;
44822;SDS011;51097;51.984;5.650;2023-04-03T10:08:07;1.23;;;0.65;;
44822;SDS011;51097;51.984;5.650;2023-04-03T10:10:36;0.63;;;0.50;;
44822;SDS011;51097;51.984;5.650;2023-04-03T10:13:12;0.95;;;0.50;;
44822;SDS011;51097;51.984;5.650;2023-04-03T10:15:45;1.27;;;0.45;;
44822;SDS011;51097;51.984;5.650;2023-04-03T10:18:27;0.88;;;0.45;;
44822;SDS011;51097;51.984;5.650;2023-04-03T10:21:14;0.93;;;0.40;;
44822;SDS011;51097;51.984;5.650;2023-04-03T10:23:51;1.05;;;0.40;;
44822;SDS011;51097;51.984;5.650;2023-04-03T10:26:37;2.40;;;0.60;;
44822;SDS011;51097;51.984;5.650;2023-04-03T10:29:20;1.77;;;0.60;;
44822;SDS011;51097;51.984;5.650;2023-04-03T10:31:53;1.27;;;0.60;;
44822;SDS011;51097;51.984;5.650;2023-04-03T10:34:41;1.65;;;0.60;;
44822;SDS011;51097;51.984;5.650;2023-04-03T10:39:37;1.25;;;0.80;;
44822;SDS011;51097;51.984;5.650;2023-04-03T10:42:25;1.30;;;1.00;;
44822;SDS011;51097;51.984;5.650;2023-04-03T10:56:48;2.53;;;0.90;;
44822;SDS011;51097;51.984;5.650;2023-04-03T11:02:28;3.75;;;1.00;;
44822;SDS011;51097;51.984;5.650;2023-04-03T11:05:06;2.08;;;0.75;;
44822;SDS011;51097;51.984;5.650;2023-04-03T11:07:41;2.30;;;0.77;;
44822;SDS011;51097;51.984;5.650;2023-04-03T11:10:13;1.85;;;0.90;;
44822;SDS011;51097;51.984;5.650;2023-04-03T11:12:56;1.92;;;0.80;;
44822;SDS011;51097;51.984;5.650;2023-04-03T11:15:28;1.88;;;0.80;;
44822;SDS011;51097;51.984;5.650;2023-04-03T11:18:02;1.67;;;0.85;;
44822;SDS011;51097;51.984;5.650;2023-04-03T11:20:37;4.18;;;1.10;;
44822;SDS011;51097;51.984;5.650;2023-04-03T11:23:21;1.70;;;0.80;;
44822;SDS011;51097;51.984;5.650;2023-04-03T11:25:51;1.13;;;1.02;;
44822;SDS011;51097;51.984;5.650;2023-04-03T11:28:20;5.30;;;1.10;;
44822;SDS011;51097;51.984;5.650;2023-04-03T11:33:42;2.58;;;0.95;;
44822;SDS011;51097;51.984;5.650;2023-04-03T11:36:26;2.10;;;0.73;;
44822;SDS011;51097;51.984;5.650;2023-04-03T11:38:56;2.95;;;0.75;;
44822;SDS011;51097;51.984;5.650;2023-04-03T11:41:26;4.75;;;0.95;;
44822;SDS011;51097;51.984;5.650;2023-04-03T11:44:02;1.60;;;1.25;;
44822;SDS011;51097;51.984;5.650;2023-04-03T11:46:57;1.10;;;0.88;;
44822;SDS011;51097;51.984;5.650;2023-04-03T12:05:53;2.25;;;0.73;;
44822;SDS011;51097;51.984;5.650;2023-04-03T12:08:26;0.57;;;0.57;;
44822;SDS011;51097;51.984;5.650;2023-04-03T12:13:39;1.45;;;0.75;;
44822;SDS011;51097;51.984;5.650;2023-04-03T12:16:06;2.60;;;0.75;;
44822;SDS011;51097;51.984;5.650;2023-04-03T12:21:18;3.65;;;1.08;;
44822;SDS011;51097;51.984;5.650;2023-04-03T12:29:46;1.48;;;0.70;;
44822;SDS011;51097;51.984;5.650;2023-04-03T12:43:18;3.22;;;0.98;;
44822;SDS011;51097;51.984;5.650;2023-04-03T12:46:33;1.73;;;0.95;;
44822;SDS011;51097;51.984;5.650;2023-04-03T12:48:57;1.90;;;1.08;;
44822;SDS011;51097;51.984;5.650;2023-04-03T12:56:46;3.55;;;1.05;;
44822;SDS011;51097;51.984;5.650;2023-04-03T13:01:58;1.73;;;1.25;;
44822;SDS011;51097;51.984;5.650;2023-04-03T13:04:25;2.80;;;1.10;;
44822;SDS011;51097;51.984;5.650;2023-04-03T13:06:52;3.35;;;1.10;;
44822;SDS011;51097;51.984;5.650;2023-04-03T13:09:28;1.00;;;0.60;;
44822;SDS011;51097;51.984;5.650;2023-04-03T13:14:50;1.58;;;0.88;;
44822;SDS011;51097;51.984;5.650;2023-04-03T13:17:22;1.05;;;0.80;;
44822;SDS011;51097;51.984;5.650;2023-04-03T13:19:49;2.22;;;0.88;;
44822;SDS011;51097;51.984;5.650;2023-04-03T13:24:47;2.58;;;1.15;;
44822;SDS011;51097;51.984;5.650;2023-04-03T13:27:15;3.90;;;1.25;;
44822;SDS011;51097;51.984;5.650;2023-04-03T13:29:41;3.25;;;0.85;;
44822;SDS011;51097;51.984;5.650;2023-04-03T13:32:13;3.17;;;1.02;;
44822;SDS011;51097;51.984;5.650;2023-04-03T13:34:47;1.58;;;0.80;;
44822;SDS011;51097;51.984;5.650;2023-04-03T13:37:20;2.65;;;0.88;;
44822;SDS011;51097;51.984;5.650;2023-04-03T13:42:32;2.10;;;0.90;;
44822;SDS011;51097;51.984;5.650;2023-04-03T13:45:08;3.30;;;1.20;;
44822;SDS011;51097;51.984;5.650;2023-04-03T13:48:08;2.05;;;1.00;;
44822;SDS011;51097;51.984;5.650;2023-04-03T13:53:24;2.38;;;1.00;;
44822;SDS011;51097;51.984;5.650;2023-04-03T13:55:59;2.28;;;0.98;;
44822;SDS011;51097;51.984;5.650;2023-04-03T13:58:26;3.63;;;1.02;;
44822;SDS011;51097;51.984;5.650;2023-04-03T14:03:23;1.45;;;0.95;;
44822;SDS011;51097;51.984;5.650;2023-04-03T14:05:59;2.90;;;1.10;;
44822;SDS011;51097;51.984;5.650;2023-04-03T14:08:26;2.85;;;1.15;;
44822;SDS011;51097;51.984;5.650;2023-04-03T14:10:52;3.30;;;1.33;;
44822;SDS011;51097;51.984;5.650;2023-04-03T14:13:19;3.47;;;1.17;;
44822;SDS011;51097;51.984;5.650;2023-04-03T14:15:46;2.78;;;1.05;;
44822;SDS011;51097;51.984;5.650;2023-04-03T14:18:14;3.33;;;0.90;;
44822;SDS011;51097;51.984;5.650;2023-04-03T14:20:42;2.47;;;1.40;;
44822;SDS011;51097;51.984;5.650;2023-04-03T14:23:08;3.13;;;1.20;;
44822;SDS011;51097;51.984;5.650;2023-04-03T14:25:34;2.50;;;1.25;;
44822;SDS011;51097;51.984;5.650;2023-04-03T14:28:00;7.93;;;1.25;;
44822;SDS011;51097;51.984;5.650;2023-04-03T14:30:28;2.20;;;1.20;;
44822;SDS011;51097;51.984;5.650;2023-04-03T14:32:58;4.47;;;1.75;;
44822;SDS011;51097;51.984;5.650;2023-04-03T14:35:24;1.95;;;1.02;;
44822;SDS011;51097;51.984;5.650;2023-04-03T14:37:50;3.35;;;1.70;;
44822;SDS011;51097;51.984;5.650;2023-04-03T14:40:19;3.97;;;1.30;;
44822;SDS011;51097;51.984;5.650;2023-04-03T14:42:47;3.33;;;1.05;;
44822;SDS011;51097;51.984;5.650;2023-04-03T14:45:13;4.10;;;1.20;;
44822;SDS011;51097;51.984;5.650;2023-04-03T14:47:50;3.85;;;1.30;;
44822;SDS011;51097;51.984;5.650;2023-04-03T14:50:19;3.95;;;2.38;;
44822;SDS011;51097;51.984;5.650;2023-04-03T14:52:47;3.17;;;1.35;;
44822;SDS011;51097;51.984;5.650;2023-04-03T14:55:15;3.42;;;1.38;;
44822;SDS011;51097;51.984;5.650;2023-04-03T14:57:41;2.92;;;1.08;;
44822;SDS011;51097;51.984;5.650;2023-04-03T15:00:11;1.55;;;1.40;;
44822;SDS011;51097;51.984;5.650;2023-04-03T15:02:39;2.83;;;1.30;;
44822;SDS011;51097;51.984;5.650;2023-04-03T15:05:06;2.00;;;1.20;;
44822;SDS011;51097;51.984;5.650;2023-04-03T15:07:34;2.95;;;1.33;;
44822;SDS011;51097;51.984;5.650;2023-04-03T15:12:39;4.07;;;2.53;;
44822;SDS011;51097;51.984;5.650;2023-04-03T15:15:06;1.75;;;1.10;;
44822;SDS011;51097;51.984;5.650;2023-04-03T15:17:32;2.95;;;1.48;;
44822;SDS011;51097;51.984;5.650;2023-04-03T15:19:59;3.10;;;1.15;;
44822;SDS011;51097;51.984;5.650;2023-04-03T15:22:25;3.40;;;1.30;;
44822;SDS011;51097;51.984;5.650;2023-04-03T15:24:50;4.43;;;1.30;;
44822;SDS011;51097;51.984;5.650;2023-04-03T15:27:16;3.10;;;1.30;;
44822;SDS011;51097;51.984;5.650;2023-04-03T15:29:42;2.35;;;1.33;;
44822;SDS011;51097;51.984;5.650;2023-04-03T15:32:10;4.82;;;1.30;;
44822;SDS011;51097;51.984;5.650;2023-04-03T15:34:36;2.60;;;1.27;;
44822;SDS011;51097;51.984;5.650;2023-04-03T15:37:02;2.67;;;1.27;;
44822;SDS011;51097;51.984;5.650;2023-04-03T15:39:28;5.20;;;2.75;;
44822;SDS011;51097;51.984;5.650;2023-04-03T15:41:54;6.40;;;1.80;;
44822;SDS011;51097;51.984;5.650;2023-04-03T15:44:20;4.25;;;1.30;;
44822;SDS011;51097;51.984;5.650;2023-04-03T15:46:46;3.15;;;1.83;;
44822;SDS011;51097;51.984;5.650;2023-04-03T15:49:13;5.00;;;1.27;;
44822;SDS011;51097;51.984;5.650;2023-04-03T15:51:39;3.83;;;1.45;;
44822;SDS011;51097;51.984;5.650;2023-04-03T15:54:06;4.88;;;1.88;;
44822;SDS011;51097;51.984;5.650;2023-04-03T15:56:31;2.65;;;1.20;;
44822;SDS011;51097;51.984;5.650;2023-04-03T15:58:57;3.30;;;1.40;;
44822;SDS011;51097;51.984;5.650;2023-04-03T16:01:22;2.92;;;1.25;;
44822;SDS011;51097;51.984;5.650;2023-04-03T16:03:48;4.03;;;1.50;;
44822;SDS011;51097;51.984;5.650;2023-04-03T16:06:14;3.10;;;1.55;;
44822;SDS011;51097;51.984;5.650;2023-04-03T16:08:41;4.25;;;1.60;;
44822;SDS011;51097;51.984;5.650;2023-04-03T16:11:07;3.65;;;1.55;;
44822;SDS011;51097;51.984;5.650;2023-04-03T16:13:33;3.72;;;1.27;;
44822;SDS011;51097;51.984;5.650;2023-04-03T16:15:59;3.38;;;1.25;;
44822;SDS011;51097;51.984;5.650;2023-04-03T16:18:26;4.50;;;1.45;;
44822;SDS011;51097;51.984;5.650;2023-04-03T16:20:52;5.13;;;2.03;;
44822;SDS011;51097;51.984;5.650;2023-04-03T16:23:18;2.47;;;1.20;;
44822;SDS011;51097;51.984;5.650;2023-04-03T16:25:44;2.90;;;1.30;;
44822;SDS011;51097;51.984;5.650;2023-04-03T16:28:11;3.45;;;1.75;;
44822;SDS011;51097;51.984;5.650;2023-04-03T16:30:40;3.45;;;1.38;;
44822;SDS011;51097;51.984;5.650;2023-04-03T16:33:06;4.25;;;1.52;;
44822;SDS011;51097;51.984;5.650;2023-04-03T16:35:34;4.78;;;1.75;;
44822;SDS011;51097;51.984;5.650;2023-04-03T16:37:59;3.92;;;1.60;;
44822;SDS011;51097;51.984;5.650;2023-04-03T16:40:25;4.28;;;1.42;;
44822;SDS011;51097;51.984;5.650;2023-04-03T16:42:50;4.75;;;1.90;;
44822;SDS011;51097;51.984;5.650;2023-04-03T16:45:16;3.03;;;1.17;;
44822;SDS011;51097;51.984;5.650;2023-04-03T16:47:41;2.17;;;1.08;;
44822;SDS011;51097;51.984;5.650;2023-04-03T16:50:07;3.53;;;1.73;;